createdAt,value
2023-04-09T00:02:03.188Z,98.50
2023-04-09T00:04:29.990Z,97.94
2023-04-09T00:06:56.838Z,99.20
2023-04-09T00:09:23.591Z,98.79
2023-04-09T00:11:50.383Z,98.54
2023-04-09T00:14:17.343Z,98.71
2023-04-09T00:16:44.219Z,98.87
2023-04-09T00:19:12.031Z,99.71
2023-04-09T00:21:38.799Z,98.86
2023-04-09T00:24:05.968Z,99.01
2023-04-09T00:26:32.675Z,99.63
2023-04-09T00:28:59.410Z,100.00
2023-04-09T00:31:26.439Z,99.40
2023-04-09T00:33:53.221Z,98.75
2023-04-09T00:36:20.031Z,99.50
2023-04-09T00:38:48.320Z,99.82
2023-04-09T00:41:15.044Z,99.26
2023-04-09T00:43:41.798Z,99.52
2023-04-09T00:46:08.781Z,99.07
2023-04-09T00:48:35.676Z,98.79
2023-04-09T00:51:02.489Z,98.42
2023-04-09T00:53:29.319Z,98.83
2023-04-09T00:55:56.115Z,99.04
2023-04-09T00:58:22.986Z,99.53
2023-04-09T01:03:24.878Z,98.66
2023-04-09T01:06:03.695Z,99.59
2023-04-09T01:08:49.748Z,99.82
2023-04-09T01:11:35.392Z,99.29
2023-04-09T01:14:09.459Z,99.11
2023-04-09T01:16:37.469Z,97.26
2023-04-09T01:19:11.548Z,97.24
2023-04-09T01:21:38.889Z,98.02
2023-04-09T01:24:31.336Z,99.23
2023-04-09T01:27:06.936Z,97.16
2023-04-09T01:29:42.286Z,97.45
2023-04-09T01:32:09.912Z,98.32
2023-04-09T01:34:37.099Z,98.97
2023-04-09T01:37:04.297Z,99.15
2023-04-09T01:39:31.123Z,98.96
2023-04-09T01:41:58.339Z,98.45
2023-04-09T01:44:26.453Z,98.37
2023-04-09T01:46:54.734Z,98.59
2023-04-09T01:49:22.409Z,99.04
2023-04-09T01:51:49.397Z,99.16
2023-04-09T01:54:17.255Z,98.85
2023-04-09T01:56:45.596Z,99.20
2023-04-09T01:59:12.535Z,98.82
2023-04-09T02:01:54.180Z,99.04
2023-04-09T02:04:41.930Z,99.56
2023-04-09T02:07:18.182Z,97.97
2023-04-09T02:09:45.858Z,98.96
2023-04-09T02:12:14.124Z,100.00
2023-04-09T02:14:41.754Z,99.91
2023-04-09T02:17:08.557Z,100.00
2023-04-09T02:19:46.533Z,100.00
2023-04-09T02:22:13.591Z,99.58
2023-04-09T02:24:40.994Z,98.78
2023-04-09T02:27:08.060Z,99.58
2023-04-09T02:29:34.944Z,99.64
2023-04-09T02:32:01.776Z,100.00
2023-04-09T02:34:28.558Z,100.00
2023-04-09T02:36:55.454Z,100.00
2023-04-09T02:39:22.157Z,100.00
2023-04-09T02:41:48.921Z,100.00
2023-04-09T02:44:15.719Z,100.00
2023-04-09T02:46:42.811Z,100.00
2023-04-09T02:49:09.592Z,99.22
2023-04-09T02:51:36.373Z,99.15
2023-04-09T02:54:04.060Z,98.89
2023-04-09T02:56:31.012Z,99.19
2023-04-09T02:58:57.715Z,99.50
2023-04-09T03:01:24.462Z,99.08
2023-04-09T03:03:51.417Z,100.00
2023-04-09T03:06:18.762Z,99.77
2023-04-09T03:08:45.759Z,99.97
2023-04-09T03:11:12.505Z,100.00
2023-04-09T03:13:42.425Z,100.00
2023-04-09T03:16:10.594Z,99.38
2023-04-09T03:18:37.630Z,98.96
2023-04-09T03:21:08.172Z,98.04
2023-04-09T03:23:35.455Z,99.70
2023-04-09T03:26:06.573Z,98.83
2023-04-09T03:28:33.524Z,98.80
2023-04-09T03:31:00.373Z,99.48
2023-04-09T03:33:27.264Z,100.00
2023-04-09T03:35:54.156Z,100.00
2023-04-09T03:38:20.940Z,100.00
2023-04-09T03:40:47.746Z,100.00
2023-04-09T03:43:14.564Z,100.00
2023-04-09T03:45:41.381Z,100.00
2023-04-09T03:48:08.078Z,100.00
2023-04-09T03:50:41.601Z,100.00
2023-04-09T03:53:08.317Z,100.00
2023-04-09T03:55:35.158Z,100.00
2023-04-09T03:58:01.989Z,100.00
2023-04-09T04:00:28.721Z,100.00
2023-04-09T04:02:55.786Z,100.00
2023-04-09T04:05:28.332Z,100.00
2023-04-09T04:07:55.027Z,100.00
2023-04-09T04:10:21.742Z,100.00
2023-04-09T04:12:48.485Z,100.00
2023-04-09T04:15:15.492Z,100.00
2023-04-09T04:17:42.460Z,100.00
2023-04-09T04:20:10.507Z,100.00
2023-04-09T04:22:37.282Z,100.00
2023-04-09T04:25:04.875Z,100.00
2023-04-09T04:27:31.708Z,100.00
2023-04-09T04:30:02.742Z,100.00
2023-04-09T04:32:29.608Z,100.00
2023-04-09T04:34:56.393Z,100.00
2023-04-09T04:37:23.092Z,100.00
2023-04-09T04:39:49.990Z,100.00
2023-04-09T04:42:17.293Z,100.00
2023-04-09T04:44:44.849Z,100.00
2023-04-09T04:47:11.554Z,100.00
2023-04-09T04:49:38.295Z,100.00
2023-04-09T04:52:05.943Z,100.00
2023-04-09T04:54:33.927Z,100.00
2023-04-09T04:57:01.488Z,100.00
2023-04-09T04:59:28.236Z,100.00
2023-04-09T05:01:55.156Z,100.00
2023-04-09T05:04:21.990Z,100.00
2023-04-09T05:06:49.051Z,100.00
2023-04-09T05:09:16.015Z,100.00
2023-04-09T05:11:42.938Z,100.00
2023-04-09T05:14:09.682Z,100.00
2023-04-09T05:16:36.524Z,100.00
2023-04-09T05:19:03.246Z,100.00
2023-04-09T05:21:30.072Z,100.00
2023-04-09T05:23:57.175Z,100.00
2023-04-09T05:26:24.216Z,100.00
2023-04-09T05:28:51.731Z,100.00
2023-04-09T05:31:18.755Z,100.00
2023-04-09T05:33:45.765Z,100.00
2023-04-09T05:36:17.419Z,100.00
2023-04-09T05:38:45.214Z,100.00
2023-04-09T05:41:11.945Z,100.00
2023-04-09T05:43:39.237Z,100.00
2023-04-09T05:46:06.039Z,100.00
2023-04-09T05:48:35.741Z,100.00
2023-04-09T05:51:02.803Z,100.00
2023-04-09T05:53:29.842Z,100.00
2023-04-09T05:55:56.639Z,100.00
2023-04-09T05:58:23.582Z,100.00
2023-04-09T06:00:52.045Z,100.00
2023-04-09T06:03:19.194Z,100.00
2023-04-09T06:05:46.942Z,100.00
2023-04-09T06:08:14.437Z,100.00
2023-04-09T06:10:41.658Z,100.00
2023-04-09T06:13:08.493Z,100.00
2023-04-09T06:15:35.314Z,100.00
2023-04-09T06:18:02.374Z,100.00
2023-04-09T06:20:29.180Z,100.00
2023-04-09T06:22:56.321Z,100.00
2023-04-09T06:25:23.460Z,100.00
2023-04-09T06:27:50.786Z,100.00
2023-04-09T06:30:17.589Z,100.00
2023-04-09T06:32:54.257Z,100.00
2023-04-09T06:35:22.166Z,100.00
2023-04-09T06:37:49.215Z,100.00
2023-04-09T06:40:15.915Z,100.00
2023-04-09T06:42:42.861Z,100.00
2023-04-09T06:45:10.483Z,100.00
2023-04-09T06:47:37.445Z,100.00
2023-04-09T06:50:04.716Z,100.00
2023-04-09T06:52:31.579Z,100.00
2023-04-09T06:54:58.648Z,100.00
2023-04-09T06:57:26.605Z,100.00
2023-04-09T06:59:53.352Z,100.00
2023-04-09T07:02:20.243Z,100.00
2023-04-09T07:04:47.953Z,100.00
2023-04-09T07:07:14.950Z,100.00
2023-04-09T07:09:42.997Z,100.00
2023-04-09T07:12:09.724Z,100.00
2023-04-09T07:14:36.459Z,100.00
2023-04-09T07:17:03.339Z,100.00
2023-04-09T07:19:30.069Z,100.00
2023-04-09T07:21:56.954Z,100.00
2023-04-09T07:24:23.684Z,100.00
2023-04-09T07:26:52.075Z,100.00
2023-04-09T07:29:21.079Z,100.00
2023-04-09T07:31:47.985Z,100.00
2023-04-09T07:34:15.040Z,100.00
2023-04-09T07:36:43.088Z,100.00
2023-04-09T07:39:09.944Z,100.00
2023-04-09T07:41:37.866Z,100.00
2023-04-09T07:44:06.711Z,100.00
2023-04-09T07:46:33.580Z,100.00
2023-04-09T07:49:01.010Z,100.00
2023-04-09T07:51:28.055Z,100.00
2023-04-09T07:53:55.434Z,100.00
2023-04-09T07:56:22.723Z,98.99
2023-04-09T07:58:49.789Z,98.76
2023-04-09T08:01:17.004Z,98.74
2023-04-09T08:03:44.036Z,97.75
2023-04-09T08:06:11.281Z,95.64
2023-04-09T08:08:38.396Z,93.59
2023-04-09T08:11:05.302Z,89.71
2023-04-09T08:13:32.014Z,89.48
2023-04-09T08:16:02.478Z,88.56
2023-04-09T08:18:29.884Z,88.00
2023-04-09T08:20:57.943Z,86.54
2023-04-09T08:23:24.762Z,86.06
2023-04-09T08:25:51.591Z,85.05
2023-04-09T08:28:18.660Z,85.69
2023-04-09T08:30:45.789Z,86.63
2023-04-09T08:33:12.553Z,85.68
2023-04-09T08:35:40.903Z,81.30
2023-04-09T08:38:07.556Z,80.22
2023-04-09T08:40:37.403Z,80.65
2023-04-09T08:43:06.533Z,79.91
2023-04-09T08:45:33.366Z,79.00
2023-04-09T08:48:00.961Z,78.08
2023-04-09T08:50:28.059Z,77.78
2023-04-09T08:52:55.002Z,76.21
2023-04-09T08:55:22.543Z,75.81
2023-04-09T08:57:49.204Z,75.07
2023-04-09T09:00:16.179Z,75.81
2023-04-09T09:03:08.815Z,75.40
2023-04-09T09:05:37.372Z,75.83
2023-04-09T09:08:04.517Z,75.53
2023-04-09T09:10:41.777Z,75.09
2023-04-09T09:13:17.630Z,73.31
2023-04-09T09:15:44.632Z,73.58
2023-04-09T09:18:11.420Z,73.84
2023-04-09T09:20:38.543Z,71.71
2023-04-09T09:23:05.630Z,74.21
2023-04-09T09:25:38.355Z,74.53
2023-04-09T09:28:12.492Z,74.52
2023-04-09T09:30:40.515Z,75.08
2023-04-09T09:33:11.497Z,75.01
2023-04-09T09:35:52.701Z,75.39
2023-04-09T09:38:19.487Z,74.59
2023-04-09T09:40:46.866Z,74.45
2023-04-09T09:43:14.743Z,71.45
2023-04-09T09:45:42.203Z,73.45
2023-04-09T09:48:11.379Z,71.58
2023-04-09T09:50:39.601Z,69.68
2023-04-09T09:53:07.608Z,70.15
2023-04-09T09:55:37.101Z,71.42
2023-04-09T09:58:12.368Z,71.28
2023-04-09T10:00:40.798Z,70.67
2023-04-09T10:03:21.663Z,71.94
2023-04-09T10:05:49.222Z,70.25
2023-04-09T10:08:16.533Z,68.52
2023-04-09T10:10:43.781Z,69.79
2023-04-09T10:13:16.354Z,70.14
2023-04-09T10:15:44.963Z,69.51
2023-04-09T10:18:11.956Z,70.04
2023-04-09T10:20:57.549Z,69.50
2023-04-09T10:23:42.734Z,72.03
2023-04-09T10:26:09.549Z,71.05
2023-04-09T10:28:38.588Z,71.94
2023-04-09T10:31:09.135Z,68.76
2023-04-09T10:33:39.210Z,66.91
2023-04-09T10:36:13.229Z,67.77
2023-04-09T10:38:41.627Z,66.57
2023-04-09T10:41:10.680Z,66.82
2023-04-09T10:43:37.731Z,67.25
2023-04-09T10:46:05.656Z,67.18
2023-04-09T10:48:35.631Z,69.03
2023-04-09T10:51:05.908Z,64.73
2023-04-09T10:53:32.836Z,66.76
2023-04-09T10:55:59.563Z,66.51
2023-04-09T10:58:26.271Z,64.53
2023-04-09T11:00:54.557Z,64.41
2023-04-09T11:03:24.167Z,63.82
2023-04-09T11:06:02.437Z,62.77
2023-04-09T11:08:30.934Z,60.21
2023-04-09T11:11:02.293Z,59.29
2023-04-09T11:13:31.064Z,59.85
2023-04-09T11:15:58.665Z,59.44
2023-04-09T11:18:28.197Z,57.72
2023-04-09T11:20:56.376Z,57.97
2023-04-09T11:23:24.334Z,56.73
2023-04-09T11:25:51.972Z,55.98
2023-04-09T11:28:19.514Z,55.05
2023-04-09T11:30:49.869Z,55.80
2023-04-09T11:33:19.613Z,56.50
2023-04-09T11:35:47.261Z,54.54
2023-04-09T11:38:14.113Z,55.87
2023-04-09T11:40:48.868Z,54.32
2023-04-09T11:43:17.041Z,54.42
2023-04-09T11:45:44.529Z,56.06
2023-04-09T11:48:12.124Z,57.98
2023-04-09T11:50:38.899Z,56.66
2023-04-09T11:53:21.634Z,58.81
2023-04-09T11:55:51.366Z,58.28
2023-04-09T11:58:18.647Z,54.65
2023-04-09T12:00:46.138Z,57.39
2023-04-09T12:03:13.861Z,54.71
2023-04-09T12:05:49.242Z,54.27
2023-04-09T12:08:18.785Z,52.70
2023-04-09T12:10:46.632Z,52.86
2023-04-09T12:13:13.965Z,54.16
2023-04-09T12:15:43.751Z,54.43
2023-04-09T12:18:12.610Z,53.76
2023-04-09T12:20:41.049Z,53.22
2023-04-09T12:23:08.480Z,51.62
2023-04-09T12:25:37.769Z,53.53
2023-04-09T12:28:06.353Z,51.48
2023-04-09T12:30:33.952Z,51.57
2023-04-09T12:33:01.012Z,51.59
2023-04-09T12:35:28.621Z,49.95
2023-04-09T12:37:55.856Z,50.77
2023-04-09T12:40:22.791Z,48.43
2023-04-09T12:42:49.622Z,51.00
2023-04-09T12:45:18.131Z,50.08
2023-04-09T12:47:45.210Z,49.86
2023-04-09T12:50:13.312Z,50.79
2023-04-09T12:52:40.465Z,51.43
2023-04-09T12:55:07.841Z,50.59
2023-04-09T12:57:34.744Z,49.90
2023-04-09T13:00:01.478Z,50.19
2023-04-09T13:02:28.306Z,50.81
2023-04-09T13:04:55.124Z,50.61
2023-04-09T13:07:22.970Z,51.49
2023-04-09T13:09:52.892Z,49.88
2023-04-09T13:12:21.791Z,48.61
2023-04-09T13:14:49.000Z,47.38
2023-04-09T13:17:16.456Z,49.23
2023-04-09T13:19:43.318Z,48.40
2023-04-09T13:22:10.726Z,48.32
2023-04-09T13:24:38.881Z,47.79
2023-04-09T13:27:06.834Z,48.75
2023-04-09T13:29:36.673Z,47.77
2023-04-09T13:32:11.413Z,46.87
2023-04-09T13:34:39.792Z,44.60
2023-04-09T13:37:06.891Z,45.88
2023-04-09T13:39:33.683Z,45.66
2023-04-09T13:42:03.631Z,44.73
2023-04-09T13:44:35.665Z,46.02
2023-04-09T13:47:02.992Z,44.58
2023-04-09T13:49:31.235Z,46.11
2023-04-09T13:51:58.224Z,45.42
2023-04-09T13:54:25.791Z,45.02
2023-04-09T13:56:53.432Z,45.02
2023-04-09T13:59:20.238Z,45.18
2023-04-09T14:01:47.281Z,45.85
2023-04-09T14:04:14.241Z,46.20
2023-04-09T14:06:42.904Z,45.04
2023-04-09T14:09:10.758Z,44.91
2023-04-09T14:11:37.921Z,44.93
2023-04-09T14:14:04.886Z,44.55
2023-04-09T14:16:31.957Z,45.10
2023-04-09T14:18:59.281Z,44.76
2023-04-09T14:21:27.312Z,43.79
2023-04-09T14:23:54.401Z,45.29
2023-04-09T14:26:22.934Z,43.65
2023-04-09T14:28:52.057Z,44.33
2023-04-09T14:31:21.788Z,44.05
2023-04-09T14:33:49.089Z,44.02
2023-04-09T14:36:16.999Z,44.34
2023-04-09T14:38:44.582Z,45.15
2023-04-09T14:41:11.533Z,45.26
2023-04-09T14:43:38.558Z,44.87
2023-04-09T14:46:07.870Z,43.90
2023-04-09T14:48:35.391Z,43.73
2023-04-09T14:51:02.910Z,44.29
2023-04-09T14:53:29.978Z,44.61
2023-04-09T14:55:57.674Z,44.09
2023-04-09T14:58:24.774Z,44.08
2023-04-09T15:00:51.532Z,44.93
2023-04-09T15:03:18.428Z,43.92
2023-04-09T15:05:46.584Z,44.19
2023-04-09T15:08:15.155Z,44.57
2023-04-09T15:10:43.669Z,45.31
2023-04-09T15:13:11.352Z,46.30
2023-04-09T15:15:41.392Z,45.41
2023-04-09T15:18:08.595Z,45.66
2023-04-09T15:20:39.140Z,45.88
2023-04-09T15:23:06.209Z,45.38
2023-04-09T15:25:33.892Z,47.06
2023-04-09T15:28:00.892Z,46.48
2023-04-09T15:30:28.329Z,46.85
2023-04-09T15:32:55.823Z,45.45
2023-04-09T15:35:30.274Z,44.21
2023-04-09T15:38:00.062Z,45.70
2023-04-09T15:40:29.449Z,44.89
2023-04-09T15:42:56.409Z,45.47
2023-04-09T15:45:23.613Z,47.70
2023-04-09T15:47:51.341Z,47.69
2023-04-09T15:50:18.392Z,46.92
2023-04-09T15:52:45.352Z,46.67
2023-04-09T15:55:12.915Z,46.48
2023-04-09T15:57:40.214Z,44.87
2023-04-09T16:00:12.797Z,46.38
2023-04-09T16:02:56.752Z,46.44
2023-04-09T16:05:27.091Z,47.31
2023-04-09T16:07:54.056Z,46.58
2023-04-09T16:10:21.314Z,47.61
2023-04-09T16:12:49.160Z,46.98
2023-04-09T16:15:19.634Z,47.47
2023-04-09T16:17:47.738Z,45.88
2023-04-09T16:20:15.187Z,46.72
2023-04-09T16:22:42.428Z,45.50
2023-04-09T16:25:10.014Z,45.71
2023-04-09T16:27:37.016Z,45.22
2023-04-09T16:30:07.974Z,44.27
2023-04-09T16:32:34.744Z,43.73
2023-04-09T16:35:03.841Z,46.23
2023-04-09T16:37:34.679Z,46.85
2023-04-09T16:40:02.887Z,48.10
2023-04-09T16:42:33.441Z,48.12
2023-04-09T16:45:15.060Z,48.64
2023-04-09T16:47:47.970Z,47.45
2023-04-09T16:50:21.786Z,47.93
2023-04-09T16:52:49.940Z,47.08
2023-04-09T16:55:26.037Z,46.35
2023-04-09T16:57:58.507Z,47.32
2023-04-09T17:00:36.996Z,46.60
2023-04-09T17:03:14.690Z,47.39
2023-04-09T17:06:00.155Z,50.19
2023-04-09T17:08:28.215Z,52.01
2023-04-09T17:11:02.537Z,52.28
2023-04-09T17:13:36.871Z,52.53
2023-04-09T17:16:06.445Z,53.19
2023-04-09T17:18:39.902Z,53.85
2023-04-09T17:21:11.928Z,53.25
2023-04-09T17:23:44.900Z,53.32
2023-04-09T17:26:11.897Z,53.99
2023-04-09T17:28:44.514Z,54.85
2023-04-09T17:31:14.322Z,54.93
2023-04-09T17:33:56.553Z,54.40
2023-04-09T17:36:29.323Z,54.41
2023-04-09T17:38:57.248Z,55.12
2023-04-09T17:41:32.274Z,54.88
2023-04-09T17:44:02.082Z,54.37
2023-04-09T17:46:32.103Z,55.14
2023-04-09T17:49:00.209Z,55.12
2023-04-09T17:51:27.476Z,55.08
2023-04-09T17:53:54.743Z,55.10
2023-04-09T17:56:28.430Z,55.95
2023-04-09T17:58:58.335Z,56.25
2023-04-09T18:01:27.353Z,57.15
2023-04-09T18:03:56.271Z,57.44
2023-04-09T18:06:23.473Z,57.47
2023-04-09T18:08:52.903Z,56.54
2023-04-09T18:11:20.584Z,56.57
2023-04-09T18:13:51.545Z,57.28
2023-04-09T18:16:21.047Z,57.32
2023-04-09T18:18:48.417Z,58.84
2023-04-09T18:21:16.702Z,59.36
2023-04-09T18:23:44.286Z,60.84
2023-04-09T18:26:11.342Z,60.39
2023-04-09T18:28:38.207Z,60.50
2023-04-09T18:31:06.354Z,60.24
2023-04-09T18:33:35.160Z,60.53
2023-04-09T18:36:03.032Z,62.04
2023-04-09T18:38:30.751Z,62.04
2023-04-09T18:40:58.065Z,64.02
2023-04-09T18:43:26.024Z,64.81
2023-04-09T18:45:52.995Z,66.45
2023-04-09T18:48:19.966Z,66.25
2023-04-09T18:50:47.255Z,68.66
2023-04-09T18:53:14.604Z,68.46
2023-04-09T18:55:41.359Z,68.44
2023-04-09T18:58:11.832Z,70.09
2023-04-09T19:00:42.667Z,68.44
2023-04-09T19:03:09.881Z,70.31
2023-04-09T19:05:36.660Z,69.79
2023-04-09T19:08:07.915Z,70.11
2023-04-09T19:10:34.822Z,71.05
2023-04-09T19:13:03.093Z,71.27
2023-04-09T19:15:30.026Z,70.65
2023-04-09T19:17:57.675Z,72.60
2023-04-09T19:20:25.046Z,73.11
2023-04-09T19:22:57.222Z,74.00
2023-04-09T19:25:24.600Z,72.66
2023-04-09T19:27:53.916Z,72.35
2023-04-09T19:30:21.924Z,73.88
2023-04-09T19:32:49.298Z,73.56
2023-04-09T19:35:17.260Z,75.44
2023-04-09T19:37:45.279Z,76.27
2023-04-09T19:40:12.652Z,75.32
2023-04-09T19:42:40.310Z,73.93
2023-04-09T19:45:08.931Z,75.78
2023-04-09T19:47:35.877Z,76.54
2023-04-09T19:50:02.767Z,77.14
2023-04-09T19:52:30.013Z,79.39
2023-04-09T19:54:58.086Z,78.50
2023-04-09T19:57:27.168Z,78.33
2023-04-09T19:59:54.755Z,79.07
2023-04-09T20:02:22.143Z,78.68
2023-04-09T20:04:49.214Z,79.92
2023-04-09T20:07:16.370Z,81.48
2023-04-09T20:09:47.289Z,80.63
2023-04-09T20:12:17.547Z,81.58
2023-04-09T20:14:45.010Z,81.77
2023-04-09T20:17:12.403Z,81.66
2023-04-09T20:19:39.816Z,82.29
2023-04-09T20:22:06.794Z,81.60
2023-04-09T20:24:35.838Z,82.38
2023-04-09T20:27:02.685Z,82.06
2023-04-09T20:29:29.674Z,83.40
2023-04-09T20:31:56.406Z,84.41
2023-04-09T20:34:27.067Z,82.98
2023-04-09T20:36:57.066Z,83.63
2023-04-09T20:39:27.088Z,83.69
2023-04-09T20:41:55.411Z,83.92
2023-04-09T20:44:22.900Z,83.84
2023-04-09T20:46:49.866Z,82.91
2023-04-09T20:49:16.894Z,84.09
2023-04-09T20:51:43.919Z,84.42
2023-04-09T20:54:11.033Z,85.22
2023-04-09T20:56:37.962Z,86.65
2023-04-09T20:59:05.330Z,86.01
2023-04-09T21:01:33.793Z,86.15
2023-04-09T21:04:04.316Z,86.12
2023-04-09T21:06:31.390Z,87.05
2023-04-09T21:08:59.693Z,86.10
2023-04-09T21:11:26.828Z,86.64
2023-04-09T21:13:55.062Z,86.72
2023-04-09T21:16:23.525Z,87.74
2023-04-09T21:18:51.043Z,88.41
2023-04-09T21:21:18.249Z,87.36
2023-04-09T21:23:44.959Z,87.42
2023-04-09T21:26:12.238Z,88.45
2023-04-09T21:28:39.285Z,88.70
2023-04-09T21:31:06.454Z,89.10
2023-04-09T21:33:33.508Z,89.75
2023-04-09T21:36:01.553Z,89.51
2023-04-09T21:38:28.635Z,89.89
2023-04-09T21:40:55.631Z,89.41
2023-04-09T21:43:22.605Z,89.47
2023-04-09T21:45:50.398Z,89.91
2023-04-09T21:48:17.151Z,90.25
2023-04-09T21:50:44.092Z,90.44
2023-04-09T21:53:11.417Z,90.14
2023-04-09T21:55:39.471Z,90.23
2023-04-09T21:58:07.450Z,90.05
2023-04-09T22:00:34.490Z,90.51
2023-04-09T22:03:02.140Z,89.80
2023-04-09T22:05:29.799Z,89.67
2023-04-09T22:07:57.201Z,88.93
2023-04-09T22:10:24.753Z,88.67
2023-04-09T22:12:51.737Z,89.59
2023-04-09T22:15:20.566Z,89.98
2023-04-09T22:17:47.905Z,90.43
2023-04-09T22:20:14.900Z,90.51
2023-04-09T22:22:42.880Z,92.76
2023-04-09T22:25:12.655Z,93.97
2023-04-09T22:27:39.662Z,92.87
2023-04-09T22:30:07.859Z,93.39
2023-04-09T22:32:35.191Z,94.04
2023-04-09T22:35:02.647Z,94.65
2023-04-09T22:37:29.838Z,93.82
2023-04-09T22:39:56.766Z,94.28
2023-04-09T22:42:25.566Z,94.74
2023-04-09T22:44:54.052Z,94.30
2023-04-09T22:47:20.840Z,93.24
2023-04-09T22:49:47.808Z,93.40
2023-04-09T22:52:15.031Z,93.10
2023-04-09T22:54:43.731Z,93.39
2023-04-09T22:57:10.651Z,93.85
2023-04-09T22:59:40.737Z,92.99
2023-04-09T23:02:08.419Z,93.25
2023-04-09T23:04:35.390Z,93.85
2023-04-09T23:07:02.844Z,94.81
2023-04-09T23:09:31.193Z,94.84
2023-04-09T23:11:58.631Z,93.76
2023-04-09T23:14:25.483Z,94.89
2023-04-09T23:16:52.244Z,94.07
2023-04-09T23:19:19.465Z,94.90
2023-04-09T23:21:46.229Z,94.87
2023-04-09T23:24:13.267Z,94.96
2023-04-09T23:26:40.062Z,94.95
2023-04-09T23:29:07.175Z,95.06
2023-04-09T23:31:34.170Z,95.80
2023-04-09T23:34:01.374Z,93.85
2023-04-09T23:36:29.297Z,93.76
2023-04-09T23:38:56.454Z,95.37
2023-04-09T23:41:23.873Z,96.42
2023-04-09T23:43:51.444Z,96.00
2023-04-09T23:46:18.517Z,96.28
2023-04-09T23:48:45.429Z,94.52
2023-04-09T23:51:18.135Z,94.23
2023-04-09T23:53:45.706Z,93.77
2023-04-09T23:56:14.437Z,95.07
2023-04-09T23:58:41.530Z,97.07
